createdAt,value
2024-02-21T00:00:59.190Z,7.98
2024-02-21T00:04:01.520Z,7.99
2024-02-21T00:07:03.817Z,7.85
2024-02-21T00:10:06.610Z,7.89
2024-02-21T00:13:08.769Z,7.94
2024-02-21T00:16:12.154Z,7.98
2024-02-21T00:19:15.821Z,7.97
2024-02-21T00:22:18.199Z,7.99
2024-02-21T00:25:20.853Z,8.00
2024-02-21T00:28:23.226Z,8.00
2024-02-21T00:31:25.681Z,8.03
2024-02-21T00:34:28.000Z,8.07
2024-02-21T00:37:30.322Z,8.10
2024-02-21T00:40:32.561Z,8.11
2024-02-21T00:43:34.773Z,8.11
2024-02-21T00:46:40.000Z,8.13
2024-02-21T00:49:42.331Z,8.14
2024-02-21T00:52:44.700Z,8.13
2024-02-21T00:55:46.975Z,8.11
2024-02-21T00:58:49.162Z,8.08
2024-02-21T01:01:51.584Z,8.08
2024-02-21T01:04:54.172Z,8.12
2024-02-21T01:07:56.535Z,8.07
2024-02-21T01:10:58.851Z,8.03
2024-02-21T01:14:01.114Z,7.99
2024-02-21T01:17:03.287Z,7.95
2024-02-21T01:20:06.797Z,7.95
2024-02-21T01:23:09.045Z,7.99
2024-02-21T01:26:14.182Z,7.97
2024-02-21T01:29:16.392Z,7.92
2024-02-21T01:32:18.619Z,7.88
2024-02-21T01:35:20.882Z,7.82
2024-02-21T01:38:23.190Z,7.77
2024-02-21T01:41:25.692Z,7.83
2024-02-21T01:44:27.997Z,7.84
2024-02-21T01:47:30.135Z,7.79
2024-02-21T01:50:32.292Z,7.80
2024-02-21T01:53:38.113Z,7.75
2024-02-21T01:56:40.253Z,7.74
2024-02-21T01:59:42.388Z,7.76
2024-02-21T02:02:46.019Z,7.76
2024-02-21T02:05:49.788Z,7.77
2024-02-21T02:08:52.296Z,7.77
2024-02-21T02:11:54.607Z,7.76
2024-02-21T02:15:01.066Z,7.78
2024-02-21T02:18:03.472Z,7.78
2024-02-21T02:21:12.079Z,7.85
2024-02-21T02:24:15.352Z,7.85
2024-02-21T02:27:17.425Z,7.83
2024-02-21T02:30:19.509Z,7.86
2024-02-21T02:33:21.877Z,7.81
2024-02-21T02:36:24.353Z,7.79
2024-02-21T02:39:26.505Z,7.77
2024-02-21T02:42:28.650Z,7.84
2024-02-21T02:45:30.983Z,7.75
2024-02-21T02:48:33.306Z,7.73
2024-02-21T02:51:35.524Z,7.62
2024-02-21T02:54:37.776Z,7.66
2024-02-21T02:57:39.903Z,7.66
2024-02-21T03:00:42.034Z,7.61
2024-02-21T03:03:46.534Z,7.60
2024-02-21T03:06:48.751Z,7.56
2024-02-21T03:09:50.946Z,7.51
2024-02-21T03:12:54.372Z,7.47
2024-02-21T03:15:56.680Z,7.39
2024-02-21T03:18:59.049Z,7.46
2024-02-21T03:22:01.257Z,7.42
2024-02-21T03:25:04.015Z,7.41
2024-02-21T03:28:07.579Z,7.36
2024-02-21T03:31:09.852Z,7.38
2024-02-21T03:34:12.727Z,7.40
2024-02-21T03:37:15.490Z,7.36
2024-02-21T03:40:18.030Z,7.36
2024-02-21T03:43:20.207Z,7.36
2024-02-21T03:46:22.540Z,7.37
2024-02-21T03:49:24.833Z,7.35
2024-02-21T03:52:27.012Z,7.30
2024-02-21T03:55:29.338Z,7.27
2024-02-21T03:58:31.906Z,7.27
2024-02-21T04:01:34.237Z,7.25
2024-02-21T04:04:38.642Z,7.14
2024-02-21T04:07:40.881Z,7.11
2024-02-21T04:10:43.090Z,7.02
2024-02-21T04:13:45.733Z,7.04
2024-02-21T04:16:47.967Z,7.07
2024-02-21T04:19:50.395Z,7.06
2024-02-21T04:22:52.679Z,7.07
2024-02-21T04:25:54.881Z,7.07
2024-02-21T04:28:57.332Z,7.07
2024-02-21T04:31:59.662Z,6.98
2024-02-21T04:35:02.283Z,6.93
2024-02-21T04:38:05.146Z,6.81
2024-02-21T04:41:07.519Z,6.73
2024-02-21T04:44:10.045Z,6.68
2024-02-21T04:47:12.197Z,6.60
2024-02-21T04:50:14.692Z,6.55
2024-02-21T04:53:17.221Z,6.50
2024-02-21T04:56:19.405Z,6.46
2024-02-21T04:59:21.552Z,6.41
2024-02-21T05:02:25.516Z,6.32
2024-02-21T05:05:27.883Z,6.27
2024-02-21T05:08:30.066Z,6.24
2024-02-21T05:11:32.398Z,6.26
2024-02-21T05:14:34.617Z,6.21
2024-02-21T05:17:37.013Z,6.25
2024-02-21T05:20:39.306Z,6.20
2024-02-21T05:23:41.556Z,6.09
2024-02-21T05:26:43.747Z,6.05
2024-02-21T05:29:46.190Z,5.99
2024-02-21T05:32:48.426Z,5.98
2024-02-21T05:35:50.736Z,6.05
2024-02-21T05:38:52.859Z,6.11
2024-02-21T05:41:55.064Z,6.11
2024-02-21T05:44:57.195Z,6.09
2024-02-21T05:47:59.495Z,6.11
2024-02-21T05:51:03.002Z,6.16
2024-02-21T05:54:06.494Z,6.29
2024-02-21T05:57:09.061Z,6.39
2024-02-21T06:00:11.718Z,6.47
2024-02-21T06:03:16.600Z,6.54
2024-02-21T06:06:18.822Z,6.58
2024-02-21T06:09:20.970Z,6.54
2024-02-21T06:12:23.763Z,6.46
2024-02-21T06:15:26.077Z,6.44
2024-02-21T06:18:28.312Z,6.45
2024-02-21T06:21:31.160Z,6.58
2024-02-21T06:24:33.308Z,6.73
2024-02-21T06:27:35.523Z,6.82
2024-02-21T06:30:37.759Z,6.93
2024-02-21T06:33:39.976Z,7.04
2024-02-21T06:36:42.140Z,7.05
2024-02-21T06:39:45.013Z,7.00
2024-02-21T06:42:47.177Z,6.94
2024-02-21T06:45:52.102Z,7.00
2024-02-21T06:48:54.799Z,7.14
2024-02-21T06:51:57.077Z,7.18
2024-02-21T06:54:59.259Z,7.26
2024-02-21T06:58:01.397Z,7.25
2024-02-21T07:01:03.659Z,7.39
2024-02-21T07:04:05.922Z,7.61
2024-02-21T07:07:08.662Z,7.97
2024-02-21T07:10:11.961Z,8.31
2024-02-21T07:13:14.700Z,8.90
2024-02-21T07:16:17.031Z,9.65
2024-02-21T07:19:19.507Z,10.14
2024-02-21T07:22:21.846Z,10.64
2024-02-21T07:25:24.041Z,11.19
2024-02-21T07:28:26.324Z,11.51
2024-02-21T07:31:28.657Z,12.20
2024-02-21T07:34:31.087Z,12.53
2024-02-21T07:37:33.675Z,12.71
2024-02-21T07:40:35.997Z,13.22
2024-02-21T07:43:38.157Z,13.82
2024-02-21T07:46:40.411Z,14.33
2024-02-21T07:49:46.125Z,14.87
2024-02-21T07:52:48.477Z,15.38
2024-02-21T07:55:51.042Z,15.87
2024-02-21T07:58:53.263Z,16.76
2024-02-21T08:01:58.837Z,17.72
2024-02-21T08:05:01.040Z,18.57
2024-02-21T08:08:04.915Z,20.24
2024-02-21T08:11:07.231Z,22.21
2024-02-21T08:14:09.707Z,22.65
2024-02-21T08:17:11.995Z,22.11
2024-02-21T08:20:14.524Z,21.98
2024-02-21T08:23:20.004Z,21.40
2024-02-21T08:26:22.146Z,21.48
2024-02-21T08:29:24.284Z,23.09
2024-02-21T08:32:26.478Z,24.40
2024-02-21T08:35:28.887Z,23.40
2024-02-21T08:38:31.359Z,22.89
2024-02-21T08:41:47.422Z,23.25
2024-02-21T08:44:56.257Z,23.19
2024-02-21T08:47:58.566Z,22.06
2024-02-21T08:51:00.901Z,20.23
2024-02-21T08:54:03.999Z,18.24
2024-02-21T08:57:06.329Z,16.97
2024-02-21T09:00:12.067Z,16.29
2024-02-21T09:03:14.223Z,15.92
2024-02-21T09:06:16.503Z,15.27
2024-02-21T09:09:18.649Z,17.11
2024-02-21T09:12:20.885Z,15.94
2024-02-21T09:15:23.117Z,15.68
2024-02-21T09:18:25.573Z,17.75
2024-02-21T09:21:29.181Z,18.90
2024-02-21T09:24:31.431Z,19.86
2024-02-21T09:27:33.920Z,22.79
2024-02-21T09:30:36.187Z,23.39
2024-02-21T09:33:38.696Z,23.05
2024-02-21T09:36:41.612Z,24.24
2024-02-21T09:39:43.814Z,24.46
2024-02-21T09:42:48.093Z,23.71
2024-02-21T09:45:56.473Z,23.35
2024-02-21T09:49:19.620Z,21.18
2024-02-21T09:52:22.038Z,19.27
2024-02-21T09:55:25.193Z,20.67
2024-02-21T09:58:28.836Z,21.16
2024-02-21T10:01:34.950Z,21.39
2024-02-21T10:04:38.147Z,21.73
2024-02-21T10:07:40.815Z,23.27
2024-02-21T10:10:44.616Z,25.44
2024-02-21T10:13:47.957Z,24.05
2024-02-21T10:16:57.382Z,24.47
2024-02-21T10:20:13.215Z,25.32
2024-02-21T10:23:15.656Z,25.52
2024-02-21T10:26:19.340Z,23.01
2024-02-21T10:29:21.448Z,20.33
2024-02-21T10:32:24.043Z,18.43
2024-02-21T10:35:30.276Z,17.80
2024-02-21T10:38:33.392Z,17.04
2024-02-21T10:41:37.698Z,16.18
2024-02-21T10:44:42.295Z,15.43
2024-02-21T10:47:49.977Z,14.63
2024-02-21T10:51:02.588Z,14.51
2024-02-21T10:54:42.472Z,14.43
2024-02-21T10:57:45.028Z,14.40
2024-02-21T11:00:47.370Z,14.46
2024-02-21T11:03:52.457Z,14.51
2024-02-21T11:06:54.998Z,14.79
2024-02-21T11:09:57.330Z,15.15
2024-02-21T11:13:12.100Z,15.45
2024-02-21T11:16:23.623Z,15.30
2024-02-21T11:19:27.492Z,15.16
2024-02-21T11:22:32.625Z,15.01
2024-02-21T11:25:35.745Z,15.18
2024-02-21T11:28:38.883Z,15.22
2024-02-21T11:31:42.261Z,15.15
2024-02-21T11:34:57.240Z,15.10
2024-02-21T11:38:14.197Z,14.92
2024-02-21T11:41:17.498Z,14.76
2024-02-21T11:44:19.738Z,14.63
2024-02-21T11:47:21.887Z,14.41
2024-02-21T11:50:25.589Z,14.34
2024-02-21T11:53:33.390Z,14.38
2024-02-21T11:56:36.919Z,14.14
2024-02-21T11:59:41.189Z,14.01
2024-02-21T12:02:44.248Z,13.77
2024-02-21T12:05:48.159Z,13.59
2024-02-21T12:08:50.414Z,13.39
2024-02-21T12:12:04.346Z,13.31
2024-02-21T12:15:08.900Z,13.20
2024-02-21T12:18:11.646Z,13.13
2024-02-21T12:21:14.571Z,13.08
2024-02-21T12:24:25.976Z,13.14
2024-02-21T12:27:28.212Z,13.23
2024-02-21T12:30:31.814Z,13.20
2024-02-21T12:33:34.406Z,13.21
2024-02-21T12:36:42.739Z,13.14
2024-02-21T12:39:45.243Z,13.09
2024-02-21T12:42:47.469Z,13.00
2024-02-21T12:45:49.956Z,12.97
2024-02-21T12:48:52.135Z,12.98
2024-02-21T12:51:54.509Z,12.97
2024-02-21T12:54:59.764Z,12.90
2024-02-21T12:58:05.590Z,12.85
2024-02-21T13:01:07.896Z,12.61
2024-02-21T13:04:10.106Z,12.44
2024-02-21T13:07:12.306Z,12.26
2024-02-21T13:10:15.396Z,12.29
2024-02-21T13:13:17.606Z,12.33
2024-02-21T13:16:19.821Z,12.43
2024-02-21T13:19:22.269Z,12.45
2024-02-21T13:22:26.945Z,12.55
2024-02-21T13:25:29.121Z,12.69
2024-02-21T13:28:31.288Z,12.89
2024-02-21T13:31:33.512Z,13.09
2024-02-21T13:34:35.786Z,13.10
2024-02-21T13:37:38.393Z,13.02
2024-02-21T13:40:40.711Z,12.82
2024-02-21T13:43:42.918Z,12.73
2024-02-21T13:46:45.418Z,12.57
2024-02-21T13:49:47.654Z,12.45
2024-02-21T13:52:49.843Z,12.39
2024-02-21T13:55:52.283Z,12.34
2024-02-21T13:58:54.511Z,12.17
2024-02-21T14:01:57.103Z,12.05
2024-02-21T14:04:59.421Z,11.97
2024-02-21T14:08:01.643Z,11.90
2024-02-21T14:11:04.024Z,11.83
2024-02-21T14:14:06.657Z,11.84
2024-02-21T14:17:09.006Z,11.95
2024-02-21T14:20:13.856Z,12.02
2024-02-21T14:23:18.329Z,12.01
2024-02-21T14:26:20.594Z,11.94
2024-02-21T14:29:23.374Z,12.00
2024-02-21T14:32:25.700Z,12.05
2024-02-21T14:35:27.896Z,12.10
2024-02-21T14:38:30.121Z,12.12
2024-02-21T14:41:32.255Z,12.11
2024-02-21T14:44:36.464Z,12.11
2024-02-21T14:47:38.703Z,12.05
2024-02-21T14:50:41.785Z,12.04
2024-02-21T14:53:51.703Z,12.00
2024-02-21T14:56:55.494Z,12.02
2024-02-21T15:00:02.742Z,12.05
2024-02-21T15:03:05.653Z,12.07
2024-02-21T15:06:07.862Z,12.06
2024-02-21T15:09:10.534Z,12.08
2024-02-21T15:12:12.759Z,12.09
2024-02-21T15:15:15.021Z,12.09
2024-02-21T15:18:17.216Z,12.09
2024-02-21T15:21:20.065Z,12.06
2024-02-21T15:24:22.324Z,12.04
2024-02-21T15:27:25.432Z,12.04
2024-02-21T15:30:32.950Z,12.03
2024-02-21T15:33:37.042Z,12.02
2024-02-21T15:36:41.408Z,11.99
2024-02-21T15:39:45.043Z,11.94
2024-02-21T15:42:47.346Z,11.89
2024-02-21T15:45:49.478Z,11.83
2024-02-21T15:48:55.216Z,11.76
2024-02-21T15:51:57.981Z,11.72
2024-02-21T15:55:00.204Z,11.68
2024-02-21T15:58:05.210Z,11.65
2024-02-21T16:01:07.796Z,11.68
2024-02-21T16:04:12.281Z,11.65
2024-02-21T16:07:14.590Z,11.57
2024-02-21T16:10:16.954Z,11.50
2024-02-21T16:13:19.048Z,11.44
2024-02-21T16:16:21.370Z,11.38
2024-02-21T16:19:24.443Z,11.42
2024-02-21T16:22:26.615Z,11.37
2024-02-21T16:25:28.686Z,11.31
2024-02-21T16:28:30.838Z,11.27
2024-02-21T16:31:32.968Z,11.26
2024-02-21T16:34:36.149Z,11.21
2024-02-21T16:37:38.396Z,11.18
2024-02-21T16:40:42.129Z,11.17
2024-02-21T16:43:44.403Z,11.14
2024-02-21T16:46:46.954Z,11.10
2024-02-21T16:49:50.370Z,11.07
2024-02-21T16:52:53.915Z,11.02
2024-02-21T16:55:56.501Z,11.00
2024-02-21T16:58:59.128Z,10.96
2024-02-21T17:02:03.099Z,10.85
2024-02-21T17:05:07.028Z,10.80
2024-02-21T17:08:10.602Z,10.77
2024-02-21T17:11:13.937Z,10.85
2024-02-21T17:14:16.531Z,10.88
2024-02-21T17:17:18.821Z,10.81
2024-02-21T17:20:21.169Z,10.73
2024-02-21T17:23:23.930Z,10.71
2024-02-21T17:26:27.225Z,10.69
2024-02-21T17:29:30.126Z,10.68
2024-02-21T17:32:32.863Z,10.65
2024-02-21T17:35:36.063Z,10.67
2024-02-21T17:38:38.403Z,10.68
2024-02-21T17:41:40.546Z,10.75
2024-02-21T17:44:46.476Z,10.74
2024-02-21T17:47:49.183Z,10.65
2024-02-21T17:50:52.219Z,10.61
2024-02-21T17:53:54.560Z,10.57
2024-02-21T17:56:59.821Z,10.53
2024-02-21T18:00:03.306Z,10.49
2024-02-21T18:03:17.828Z,10.47
2024-02-21T18:06:21.531Z,10.45
2024-02-21T18:09:23.888Z,10.45
2024-02-21T18:12:26.038Z,10.46
2024-02-21T18:15:28.835Z,10.50
2024-02-21T18:18:31.773Z,10.55
2024-02-21T18:21:34.571Z,10.54
2024-02-21T18:24:36.623Z,10.43
2024-02-21T18:27:39.138Z,10.35
2024-02-21T18:30:41.747Z,10.31
2024-02-21T18:33:46.222Z,10.27
2024-02-21T18:36:48.537Z,10.30
2024-02-21T18:39:51.104Z,10.25
2024-02-21T18:42:53.297Z,10.23
2024-02-21T18:45:55.808Z,10.15
2024-02-21T18:48:57.941Z,10.12
2024-02-21T18:52:01.138Z,10.12
2024-02-21T18:55:03.601Z,10.15
2024-02-21T18:58:05.825Z,10.12
2024-02-21T19:01:08.219Z,10.13
2024-02-21T19:04:10.477Z,10.06
2024-02-21T19:07:12.736Z,10.02
2024-02-21T19:10:15.051Z,9.99
2024-02-21T19:13:17.153Z,10.00
2024-02-21T19:16:19.495Z,9.94
2024-02-21T19:19:21.784Z,9.95
2024-02-21T19:22:26.020Z,9.92
2024-02-21T19:25:28.862Z,9.93
2024-02-21T19:28:31.243Z,9.87
2024-02-21T19:31:33.516Z,9.71
2024-02-21T19:34:37.869Z,9.54
2024-02-21T19:37:41.608Z,9.57
2024-02-21T19:40:43.968Z,9.55
2024-02-21T19:43:47.607Z,9.50
2024-02-21T19:46:50.430Z,9.40
2024-02-21T19:49:53.375Z,9.36
2024-02-21T19:52:56.421Z,9.35
2024-02-21T19:55:58.910Z,9.36
2024-02-21T19:59:02.569Z,9.31
2024-02-21T20:02:05.057Z,9.35
2024-02-21T20:05:08.450Z,9.39
2024-02-21T20:08:12.501Z,9.34
2024-02-21T20:11:15.526Z,9.32
2024-02-21T20:14:22.067Z,9.34
2024-02-21T20:17:24.748Z,9.37
2024-02-21T20:20:28.613Z,9.40
2024-02-21T20:23:31.592Z,9.36
2024-02-21T20:26:33.745Z,9.23
2024-02-21T20:29:36.199Z,9.04
2024-02-21T20:32:38.426Z,8.89
2024-02-21T20:35:40.677Z,8.85
2024-02-21T20:38:42.965Z,8.85
2024-02-21T20:41:45.174Z,8.78
2024-02-21T20:44:47.419Z,8.65
2024-02-21T20:47:49.634Z,8.73
2024-02-21T20:50:52.405Z,8.67
2024-02-21T20:53:54.632Z,8.55
2024-02-21T20:56:59.236Z,8.42
2024-02-21T21:00:01.786Z,8.36
2024-02-21T21:03:04.214Z,8.35
2024-02-21T21:06:06.766Z,8.46
2024-02-21T21:09:09.770Z,8.50
2024-02-21T21:12:12.211Z,8.61
2024-02-21T21:15:14.513Z,8.81
2024-02-21T21:18:17.498Z,8.78
2024-02-21T21:21:19.693Z,8.85
2024-02-21T21:24:21.945Z,8.88
2024-02-21T21:27:27.757Z,8.87
2024-02-21T21:30:29.927Z,8.87
2024-02-21T21:33:37.495Z,8.75
2024-02-21T21:36:39.742Z,8.65
2024-02-21T21:39:45.005Z,8.55
2024-02-21T21:42:47.359Z,8.51
2024-02-21T21:45:49.606Z,8.44
2024-02-21T21:48:51.863Z,8.37
2024-02-21T21:51:54.157Z,8.26
2024-02-21T21:54:56.365Z,8.29
2024-02-21T21:57:58.605Z,8.18
2024-02-21T22:01:00.892Z,8.11
2024-02-21T22:04:03.454Z,8.09
2024-02-21T22:07:05.688Z,8.06
2024-02-21T22:10:08.276Z,8.12
2024-02-21T22:13:10.424Z,8.13
2024-02-21T22:16:12.610Z,8.23
2024-02-21T22:19:14.886Z,8.30
2024-02-21T22:22:17.401Z,8.20
2024-02-21T22:25:19.544Z,8.22
2024-02-21T22:28:23.261Z,8.14
2024-02-21T22:31:25.521Z,8.06
2024-02-21T22:34:27.895Z,7.99
2024-02-21T22:37:30.208Z,7.93
2024-02-21T22:40:32.415Z,7.84
2024-02-21T22:43:35.258Z,7.83
2024-02-21T22:46:39.511Z,7.81
2024-02-21T22:49:42.473Z,7.79
2024-02-21T22:52:45.435Z,7.77
2024-02-21T22:55:47.616Z,7.58
2024-02-21T22:58:51.718Z,7.54
2024-02-21T23:01:54.472Z,7.49
2024-02-21T23:04:56.773Z,7.60
2024-02-21T23:07:59.045Z,7.53
2024-02-21T23:11:01.977Z,7.57
2024-02-21T23:14:04.992Z,7.53
2024-02-21T23:17:07.230Z,7.48
2024-02-21T23:20:09.871Z,7.42
2024-02-21T23:23:12.535Z,7.28
2024-02-21T23:26:14.814Z,7.18
2024-02-21T23:29:17.117Z,7.10
2024-02-21T23:32:20.218Z,7.09
2024-02-21T23:35:22.459Z,7.09
2024-02-21T23:38:24.759Z,7.07
2024-02-21T23:41:26.910Z,7.05
2024-02-21T23:44:29.150Z,7.01
2024-02-21T23:47:31.367Z,6.98
2024-02-21T23:50:33.609Z,6.95
2024-02-21T23:53:36.143Z,6.93
2024-02-21T23:56:43.201Z,6.96
2024-02-21T23:59:45.633Z,7.03
